Latest Weather Observations for Sydney Airport

IDN60801

Issued at 9:32 pm EST Thursday 22 June 2017 (issued every 30 minutes, with the page automatically refreshed every 10 minutes)

About weather observations | Map of weather stations | Latest weather observations for NSW | Other Formats
Station Details ID: 066037 Name: SYDNEY AIRPORT AMO Lat: -33.95 Lon: 151.17 Height: 6.0 m
Data from the previous 72 hours. | See also: Recent months at Sydney Airport
Date/Time
EST
Temp
°C
App
Temp
°C
Dew
Point
°C
Rel
Hum
%
Delta-T
°C
Wind Press
QNH
hPa
Press
MSL
hPa
Rain since
9am
mm
Dir  Spd
km/h
Gust
km/h
Spd
kts
Gust
kts
22/09:00pm 13.7 12.7 10.9 83 1.5 WSW 7 9 4 5 1024.1 1024.1 0.0
22/08:30pm 14.2 14.4 10.6 79 1.9 CALM 0 0 0 0 1024.1 1024.1 0.0
22/08:00pm 14.9 15.2 10.9 77 2.1 CALM 0 0 0 0 1024.3 1024.3 0.0
22/07:30pm 15.3 15.5 10.7 74 2.4 CALM 0 0 0 0 1024.2 1024.2 0.0
22/07:00pm 15.3 15.5 10.7 74 2.4 CALM 0 0 0 0 1024.4 1024.4 0.0
22/06:30pm 15.8 15.1 11.4 75 2.4 E 6 7 3 4 1024.3 1024.3 0.0
22/06:00pm 15.0 13.6 11.0 77 2.1 E 9 11 5 6 1024.1 1024.1 0.0
22/05:30pm 15.2 13.8 11.0 76 2.2 ENE 9 11 5 6 1024.3 1024.3 0.0
22/05:00pm 15.4 14.0 11.0 75 2.3 SE 9 11 5 6 1024.3 1024.3 0.0
22/04:30pm 15.9 14.6 11.1 73 2.6 SE 9 9 5 5 1024.6 1024.6 0.0
22/04:00pm 16.6 15.0 11.7 73 2.6 SSE 11 13 6 7 1024.7 1024.7 0.0
22/03:30pm 16.9 15.7 11.6 71 2.9 SSE 9 13 5 7 1024.5 1024.5 0.0
22/03:00pm 16.8 15.5 11.3 70 3.0 SSE 9 11 5 6 1024.6 1024.6 0.0
22/02:30pm 17.2 15.4 10.8 66 3.4 SSE 11 15 6 8 1024.5 1024.5 0.0
22/02:00pm 17.2 15.0 10.8 66 3.4 SSE 13 15 7 8 1024.7 1024.7 0.0
22/01:30pm 16.9 14.6 11.6 71 2.9 SSE 15 17 8 9 1025.2 1025.2 0.0
22/01:00pm 16.7 13.9 11.2 70 2.9 SSE 17 22 9 12 1025.6 1025.6 0.0
22/12:30pm 16.6 13.9 11.7 73 2.7 SSE 17 19 9 10 1026.1 1026.1 0.0
22/12:00pm 16.6 13.8 11.3 71 2.8 S 17 19 9 10 1026.7 1026.7 0.0
22/11:30am 17.0 14.9 12.3 74 2.6 SSW 15 35 8 19 1027.2 1027.2 0.0
22/11:00am 16.4 14.8 11.6 73 2.6 SW 11 26 6 14 1027.6 1027.6 0.0
22/10:30am 16.3 14.5 10.8 70 2.9 W 11 28 6 15 1028.1 1028.1 0.0
22/10:00am 15.5 13.6 10.5 72 2.6 WNW 11 17 6 9 1028.5 1028.5 0.0
22/09:30am 14.9 12.5 9.9 72 2.6 NW 13 20 7 11 1028.5 1028.5 0.0
22/09:00am 14.3 12.6 9.7 74 2.4 NNW 9 13 5 7 1028.3 1028.3 0.2
22/08:30am 12.1 9.7 8.8 80 1.6 NW 11 19 6 10 1028.2 1028.2 0.2
22/08:00am 11.9 9.5 8.6 80 1.6 NW 11 13 6 7 1028.1 1028.1 0.2
22/07:30am 11.2 9.1 8.2 82 1.5 WNW 9 11 5 6 1027.8 1027.8 0.2
22/07:00am 10.1 6.8 8.2 88 0.9 WNW 15 22 8 12 1027.5 1027.5 0.2
22/06:30am 10.0 6.0 8.1 88 0.9 WNW 19 26 10 14 1027.4 1027.4 0.2
22/06:00am 9.9 5.9 8.2 89 0.8 NW 19 24 10 13 1027.0 1027.0 0.2
22/05:30am 10.0 5.8 8.4 90 0.8 WNW 20 24 11 13 1026.7 1026.7 0.2
22/05:00am 10.4 7.3 8.8 90 0.8 NW 15 17 8 9 1026.8 1026.8 0.2
22/04:30am 10.5 7.0 8.9 90 0.8 NW 17 19 9 10 1026.7 1026.7 0.2
22/04:00am 11.4 7.7 9.3 87 1.0 WSW 19 22 10 12 1026.6 1026.6 0.2
22/03:30am 13.8 10.5 11.0 83 1.5 WSW 19 24 10 13 1026.4 1026.4 0.2
22/03:00am 13.8 10.3 11.0 83 1.5 SW 20 26 11 14 1026.6 1026.6 0.2
22/02:30am 11.7 8.0 9.6 87 1.1 SW 19 20 10 11 1026.9 1026.9 0.2
22/02:00am 11.8 10.0 9.4 85 1.2 NNW 9 15 5 8 1027.0 1027.0 0.2
22/01:30am 12.4 9.2 10.0 85 1.2 SW 17 22 9 12 1027.1 1027.1 0.2
22/01:00am 12.0 8.7 9.7 86 1.2 WSW 17 26 9 14 1027.1 1027.1 0.2
22/12:30am 12.0 8.3 9.6 85 1.2 WSW 19 22 10 12 1027.3 1027.3 0.2
22/12:00am 12.3 8.5 9.7 84 1.3 WSW 20 26 11 14 1027.4 1027.4 0.2
 
Date/Time
EST
Temp
°C
App
Temp
°C
Dew
Point
°C
Rel
Hum
%
Delta-T
°C
Wind Press
QNH
hPa
Press
MSL
hPa
Rain since
9am
mm
Dir  Spd
km/h
Gust
km/h
Spd
kts
Gust
kts
21/11:30pm 12.3 9.4 9.5 83 1.4 WSW 15 17 8 9 1027.6 1027.6 0.2
21/11:00pm 12.6 9.4 9.8 83 1.4 WSW 17 22 9 12 1027.8 1027.8 0.2
21/10:30pm 13.4 9.9 10.2 81 1.7 WSW 19 24 10 13 1027.7 1027.7 0.2
21/10:00pm 14.1 11.1 10.5 79 1.9 WSW 17 19 9 10 1027.8 1027.8 0.2
21/09:30pm 14.2 10.9 11.0 81 1.7 WSW 19 37 10 20 1027.8 1027.8 0.2
21/09:00pm 14.3 11.3 10.7 79 1.9 WSW 17 20 9 11 1027.9 1027.9 0.2
21/08:30pm 14.8 11.8 10.6 76 2.2 WSW 17 20 9 11 1028.2 1028.2 0.2
21/08:00pm 15.1 12.1 10.7 75 2.3 WSW 17 20 9 11 1028.2 1028.2 0.2
21/07:30pm 14.6 11.4 9.8 73 2.5 WSW 17 19 9 10 1027.9 1027.9 0.2
21/07:00pm 15.1 11.8 9.7 70 2.8 SW 17 39 9 21 1027.5 1027.5 0.2
21/06:30pm 15.4 11.9 10.2 71 2.7 SW 19 37 10 20 1027.2 1027.2 0.2
21/06:00pm 15.9 12.5 10.7 71 2.7 SW 19 22 10 12 1026.8 1026.8 0.2
21/05:30pm 16.4 13.7 11.8 74 2.5 S 17 26 9 14 1026.2 1026.2 0.2
21/05:00pm 16.7 12.6 11.6 72 2.8 S 24 30 13 16 1025.7 1025.7 0.2
21/04:30pm 17.0 13.0 11.7 71 2.9 S 24 35 13 19 1025.6 1025.6 0.2
21/04:00pm 17.3 13.2 11.6 69 3.1 S 24 32 13 17 1025.3 1025.3 0.2
21/03:30pm 17.5 13.1 11.8 69 3.1 S 26 39 14 21 1025.3 1025.3 0.0
21/03:00pm 17.7 12.9 11.5 67 3.4 S 28 39 15 21 1025.3 1025.3 0.0
21/02:30pm 17.4 12.5 12.5 73 2.7 S 30 41 16 22 1025.2 1025.2 0.0
21/02:00pm 17.7 12.2 11.7 68 3.3 SSW 32 39 17 21 1025.0 1025.0 0.0
21/01:32pm 17.8 12.1 12.9 73 2.7 SSW 35 54 19 29 1024.9 1024.9 0.0
21/01:30pm 17.8 12.3 13.5 76 2.4 SSW 35 41 19 22 1024.9 1024.9 0.0
21/01:06pm 17.4 11.9 13.5 78 2.2 SSW 35 56 19 30 1025.0 1025.0 0.0
21/01:00pm 17.2 11.7 13.7 80 2.0 SSW 35 41 19 22 1025.0 1025.0 0.0
21/12:30pm 17.0 12.7 14.3 84 1.5 SSW 30 39 16 21 1025.4 1025.4 0.0
21/12:00pm 17.0 12.3 14.3 84 1.5 SSW 32 41 17 22 1025.5 1025.5 0.0
21/11:30am 16.6 13.7 13.9 84 1.5 SSW 22 32 12 17 1025.7 1025.7 0.0
21/11:00am 16.5 12.9 13.0 80 1.9 SSW 24 30 13 16 1026.1 1026.1 0.0
21/10:30am 16.2 13.8 10.1 67 3.2 WSW 13 24 7 13 1026.3 1026.3 0.0
21/10:00am 15.0 12.7 8.9 67 3.1 WNW 11 17 6 9 1026.2 1026.2 0.0
21/09:30am 13.6 11.4 7.8 68 2.9 WNW 9 13 5 7 1026.0 1026.0 0.0
21/09:00am 13.3 10.3 7.7 69 2.7 NNW 13 15 7 8 1025.7 1025.7 0.2
21/08:30am 12.3 9.5 7.0 70 2.5 NNW 11 13 6 7 1025.2 1025.2 0.2
21/08:00am 10.6 7.7 6.4 75 2.0 NNW 11 13 6 7 1024.9 1024.9 0.2
21/07:30am 9.8 6.8 5.8 76 1.8 NW 11 13 6 7 1024.7 1024.7 0.2
21/07:00am 9.3 6.4 6.4 82 1.3 NW 11 15 6 8 1024.5 1024.5 0.2
21/06:30am 9.1 5.8 6.4 83 1.2 WNW 13 20 7 11 1024.2 1024.2 0.2
21/06:00am 9.6 6.2 7.5 87 1.0 NW 15 17 8 9 1023.6 1023.6 0.2
21/05:30am 9.8 6.5 7.9 88 0.9 NW 15 17 8 9 1023.4 1023.4 0.2
21/05:00am 9.9 7.1 8.5 91 0.7 NW 13 15 7 8 1023.2 1023.2 0.2
21/04:30am 9.6 6.5 8.8 95 0.4 WNW 15 17 8 9 1023.1 1023.1 0.2
21/04:00am 9.5 7.3 9.4 99 0.0 NW 11 15 6 8 1023.0 1023.0 0.2
21/03:30am 10.2 8.2 10.1 99 0.1 N 11 13 6 7 1023.0 1023.0 0.2
21/03:00am 10.7 8.4 10.5 99 0.1 NW 13 15 7 8 1023.0 1023.0 0.2
21/02:30am 11.0 8.4 10.8 99 0.1 NNW 15 15 8 8 1023.3 1023.3 0.2
21/02:00am 11.5 9.1 11.3 99 0.1 NNW 15 15 8 8 1023.5 1023.5 0.2
21/01:30am 11.5 9.4 11.0 97 0.3 NNW 13 13 7 7 1023.7 1023.7 0.2
21/01:00am 11.7 9.9 10.9 95 0.4 N 11 11 6 6 1023.8 1023.8 0.2
21/12:30am 11.8 10.3 10.7 93 0.6 NNW 9 11 5 6 1024.0 1024.0 0.2
21/12:00am 12.5 11.3 11.6 94 0.5 NW 9 11 5 6 1024.2 1024.2 0.2
 
Date/Time
EST
Temp
°C
App
Temp
°C
Dew
Point
°C
Rel
Hum
%
Delta-T
°C
Wind Press
QNH
hPa
Press
MSL
hPa
Rain since
9am
mm
Dir  Spd
km/h
Gust
km/h
Spd
kts
Gust
kts
20/11:30pm 12.7 11.1 11.6 93 0.6 WNW 11 13 6 7 1024.7 1024.7 0.2
20/11:00pm 13.2 12.1 11.9 92 0.7 NW 9 11 5 6 1024.8 1024.8 0.2
20/10:30pm 13.4 12.2 11.6 89 1.0 NW 9 11 5 6 1024.8 1024.8 0.2
20/10:00pm 14.2 13.2 12.2 88 1.1 N 9 11 5 6 1024.7 1024.7 0.2
20/09:30pm 15.0 13.7 12.5 85 1.4 NNW 11 13 6 7 1024.8 1024.8 0.2
20/09:00pm 15.1 13.8 12.6 85 1.4 NNW 11 13 6 7 1025.1 1025.1 0.2
20/08:30pm 14.9 13.6 12.6 86 1.3 WNW 11 15 6 8 1025.2 1025.2 0.2
20/08:00pm 15.4 15.1 12.7 84 1.5 NNW 6 7 3 4 1025.1 1025.1 0.2
20/07:30pm 16.0 15.6 13.1 83 1.6 NNE 7 9 4 5 1025.1 1025.1 0.2
20/07:00pm 16.1 15.9 13.0 82 1.7 NE 6 7 3 4 1025.0 1025.0 0.2
20/06:30pm 15.9 16.1 13.0 83 1.6 ENE 4 6 2 3 1025.0 1025.0 0.2
20/06:00pm 15.3 15.0 12.6 84 1.5 SSE 6 6 3 3 1024.9 1024.9 0.2
20/05:30pm 16.1 16.0 13.4 84 1.5 SSE 6 7 3 4 1025.0 1025.0 0.2
20/05:00pm 16.1 16.3 13.0 82 1.7 SSE 4 6 2 3 1024.8 1024.8 0.2
20/04:30pm 16.6 16.3 13.3 81 1.8 S 7 7 4 4 1025.0 1025.0 0.2
20/04:00pm 17.0 16.3 13.1 78 2.2 S 9 11 5 6 1024.9 1024.9 0.2
20/03:30pm 17.4 16.2 12.9 75 2.5 S 11 15 6 8 1025.0 1025.0 0.2
20/03:00pm 18.1 16.5 12.8 71 2.9 SSE 13 15 7 8 1025.2 1025.2 0.2
20/02:30pm 17.6 16.1 13.1 75 2.5 SSE 13 17 7 9 1025.3 1025.3 0.2
20/02:00pm 17.6 15.4 13.3 76 2.4 S 17 20 9 11 1025.4 1025.4 0.2
20/01:30pm 18.0 16.4 13.9 77 2.3 S 15 19 8 10 1025.6 1025.6 0.2
20/01:00pm 17.6 15.2 13.7 78 2.2 S 19 30 10 16 1026.0 1026.0 0.2
20/12:30pm 17.7 15.6 13.6 77 2.3 S 17 26 9 14 1026.7 1026.7 0.2
20/12:00pm 17.4 14.9 13.5 78 2.2 S 19 26 10 14 1027.0 1027.0 0.2
20/11:30am 17.2 15.1 13.7 80 2.0 SSW 17 19 9 10 1027.5 1027.5 0.2
20/11:00am 16.9 15.2 12.4 75 2.5 WSW 13 28 7 15 1028.1 1028.1 0.2
20/10:30am 16.1 14.9 12.8 81 1.8 W 11 28 6 15 1028.4 1028.4 0.0
20/10:00am 15.1 13.4 12.4 84 1.5 NW 13 15 7 8 1028.5 1028.5 0.0
20/09:30am 14.7 13.7 12.2 85 1.4 NNW 9 11 5 6 1028.6 1028.6 0.0
20/09:00am 14.0 12.2 12.0 88 1.1 WNW 13 13 7 7 1028.5 1028.5 1.6
20/08:30am 13.3 11.8 12.0 92 0.7 WNW 11 15 6 8 1028.5 1028.5 1.6
20/08:00am 12.7 10.4 11.6 93 0.6 NW 15 20 8 11 1028.6 1028.6 1.6
20/07:30am 12.3 9.6 11.8 97 0.3 NW 17 19 9 10 1028.3 1028.3 1.6
20/07:19am 12.3 10.3 11.5 95 0.4 WNW 13 15 7 8 1028.3 1028.3 1.4
20/07:00am 13.7 11.7 12.6 93 0.6 NW 15 20 8 11 1028.2 1028.2 1.2
20/06:30am 12.9 11.2 12.6 98 0.2 WNW 13 26 7 14 1028.0 1028.0 1.0
20/06:00am 12.5 10.6 11.9 96 0.3 NW 13 17 7 9 1027.8 1027.8 1.0
20/05:30am 13.0 11.6 12.2 95 0.4 NW 11 19 6 10 1027.7 1027.7 0.8
20/05:00am 12.7 11.6 11.9 95 0.4 NNW 9 13 5 7 1027.3 1027.3 0.8
20/04:30am 12.2 11.4 11.6 96 0.3 NNW 7 15 4 8 1027.6 1027.6 0.8
20/04:00am 12.2 10.6 11.7 97 0.3 WNW 11 13 6 7 1027.7 1027.7 0.8
20/03:30am 12.0 10.5 11.8 99 0.1 WSW 11 17 6 9 1027.8 1027.8 0.8
20/03:00am 12.2 10.7 11.9 98 0.2 SW 11 15 6 8 1028.0 1028.0 0.8
20/02:30am 12.4 9.7 11.8 96 0.3 SW 17 20 9 11 1028.2 1028.2 0.8
20/02:00am 14.0 12.1 13.1 94 0.5 SW 15 19 8 10 1028.2 1028.2 0.8
20/01:30am 15.0 12.6 13.7 92 0.7 SW 19 28 10 15 1028.4 1028.4 0.8
20/01:00am 15.2 12.4 14.4 95 0.5 SW 22 26 12 14 1028.4 1028.4 0.8
20/12:30am 14.8 12.2 13.8 94 0.6 SW 20 26 11 14 1028.4 1028.4 0.8
20/12:00am 14.8 12.2 13.8 94 0.6 SSW 20 26 11 14 1028.7 1028.7 0.8
 
Date/Time
EST
Temp
°C
App
Temp
°C
Dew
Point
°C
Rel
Hum
%
Delta-T
°C
Wind Press
QNH
hPa
Press
MSL
hPa
Rain since
9am
mm
Dir  Spd
km/h
Gust
km/h
Spd
kts
Gust
kts
19/11:30pm 15.4 13.0 14.4 94 0.6 SSW 20 26 11 14 1028.8 1028.8 0.8
19/11:00pm 15.3 12.6 14.5 95 0.5 SSW 22 30 12 16 1029.0 1029.0 0.8
19/10:30pm 15.5 11.6 14.5 94 0.6 S 28 33 15 18 1029.1 1029.1 0.4
19/10:00pm 15.3 12.7 13.3 88 1.1 SSW 19 22 10 12 1028.9 1028.9 0.2

Other Formats:

Comma delimited format used in spreadsheet applications
http://www.bom.gov.au/fwo/IDN60801/IDN60801.94767.axf

JavaScript Object Notation format (JSON) in row-major order
http://www.bom.gov.au/fwo/IDN60801/IDN60801.94767.json